createdAt,value
2018-07-04T00:00:33.647Z,1.93
2018-07-04T00:03:07.931Z,2.20
2018-07-04T00:05:42.320Z,1.90
2018-07-04T00:08:16.923Z,2.00
2018-07-04T00:10:51.031Z,1.90
2018-07-04T00:13:25.389Z,2.47
2018-07-04T00:15:59.675Z,2.07
2018-07-04T00:18:34.063Z,1.80
2018-07-04T00:21:08.420Z,1.90
2018-07-04T00:23:43.551Z,1.70
2018-07-04T00:26:17.936Z,2.10
2018-07-04T00:28:52.719Z,1.87
2018-07-04T00:31:27.291Z,2.60
2018-07-04T00:34:01.908Z,1.80
2018-07-04T00:36:36.435Z,1.90
2018-07-04T00:39:10.917Z,2.03
2018-07-04T00:41:45.853Z,1.90
2018-07-04T00:44:20.492Z,2.20
2018-07-04T00:46:55.079Z,1.83
2018-07-04T00:49:29.295Z,1.60
2018-07-04T00:52:03.432Z,2.03
2018-07-04T00:54:37.545Z,1.97
2018-07-04T00:57:12.067Z,2.10
2018-07-04T00:59:46.371Z,2.70
2018-07-04T01:02:20.744Z,2.60
2018-07-04T01:04:55.207Z,2.53
2018-07-04T01:07:29.391Z,2.90
2018-07-04T01:10:03.437Z,2.73
2018-07-04T01:12:37.715Z,2.30
2018-07-04T01:15:12.176Z,2.27
2018-07-04T01:17:46.695Z,2.70
2018-07-04T01:20:21.032Z,2.70
2018-07-04T01:22:55.735Z,2.10
2018-07-04T01:25:30.188Z,1.93
2018-07-04T01:28:04.776Z,1.80
2018-07-04T01:30:39.499Z,1.50
2018-07-04T01:33:14.165Z,1.50
2018-07-04T01:35:48.691Z,1.70
2018-07-04T01:38:22.901Z,1.60
2018-07-04T01:40:57.637Z,1.60
2018-07-04T01:43:32.311Z,1.70
2018-07-04T01:46:06.519Z,2.00
2018-07-04T01:48:41.170Z,1.60
2018-07-04T01:51:15.703Z,1.60
2018-07-04T01:53:49.935Z,1.63
2018-07-04T01:56:24.040Z,1.60
2018-07-04T01:58:58.560Z,1.50
2018-07-04T02:01:32.779Z,1.50
2018-07-04T02:04:07.143Z,1.77
2018-07-04T02:06:41.825Z,1.37
2018-07-04T02:09:16.071Z,1.70
2018-07-04T02:11:49.899Z,1.70
2018-07-04T02:14:23.984Z,1.53
2018-07-04T02:16:58.395Z,1.60
2018-07-04T02:19:32.623Z,1.40
2018-07-04T02:22:06.923Z,1.57
2018-07-04T02:24:41.381Z,1.63
2018-07-04T02:27:15.802Z,1.70
2018-07-04T02:29:50.183Z,1.47
2018-07-04T02:32:24.531Z,1.30
2018-07-04T02:34:59.848Z,1.40
2018-07-04T02:37:34.184Z,1.27
2018-07-04T02:40:08.209Z,1.30
2018-07-04T02:42:42.432Z,1.43
2018-07-04T02:45:17.116Z,1.30
2018-07-04T02:47:51.460Z,1.40
2018-07-04T02:50:25.675Z,1.40
2018-07-04T02:52:59.994Z,1.60
2018-07-04T02:55:34.263Z,1.30
2018-07-04T02:58:09.479Z,1.30
2018-07-04T03:00:43.692Z,1.30
2018-07-04T03:03:18.060Z,1.40
2018-07-04T03:05:52.501Z,1.30
2018-07-04T03:08:26.818Z,1.37
2018-07-04T03:11:01.428Z,1.30
2018-07-04T03:13:35.683Z,1.10
2018-07-04T03:16:09.649Z,1.20
2018-07-04T03:18:44.280Z,1.17
2018-07-04T03:21:18.611Z,1.30
2018-07-04T03:23:52.616Z,1.37
2018-07-04T03:26:26.704Z,1.40
2018-07-04T03:29:01.187Z,1.20
2018-07-04T03:31:36.180Z,1.10
2018-07-04T03:34:10.636Z,1.60
2018-07-04T03:36:45.080Z,1.40
2018-07-04T03:39:19.140Z,1.67
2018-07-04T03:41:53.251Z,1.90
2018-07-04T03:44:27.138Z,1.60
2018-07-04T03:47:01.649Z,1.70
2018-07-04T03:49:35.932Z,1.43
2018-07-04T03:52:10.613Z,1.43
2018-07-04T03:54:44.955Z,1.97
2018-07-04T03:57:19.368Z,1.20
2018-07-04T03:59:53.510Z,1.47
2018-07-04T04:02:28.064Z,1.73
2018-07-04T04:05:02.438Z,1.40
2018-07-04T04:07:37.160Z,1.63
2018-07-04T04:10:11.580Z,1.30
2018-07-04T04:12:45.928Z,1.60
2018-07-04T04:15:20.533Z,1.20
2018-07-04T04:17:55.379Z,1.80
2018-07-04T04:20:29.491Z,1.90
2018-07-04T04:23:03.997Z,1.73
2018-07-04T04:25:38.544Z,1.40
2018-07-04T04:28:17.141Z,1.70
2018-07-04T04:30:51.864Z,1.60
2018-07-04T04:33:26.423Z,1.50
2018-07-04T04:36:01.086Z,2.20
2018-07-04T04:38:35.844Z,1.57
2018-07-04T04:41:10.107Z,1.63
2018-07-04T04:43:44.813Z,1.90
2018-07-04T04:46:18.943Z,2.50
2018-07-04T04:48:53.655Z,2.10
2018-07-04T04:51:28.155Z,1.97
2018-07-04T04:54:02.689Z,1.90
2018-07-04T04:56:37.064Z,1.80
2018-07-04T04:59:11.484Z,1.63
2018-07-04T05:01:45.807Z,1.70
2018-07-04T05:04:20.363Z,1.43
2018-07-04T05:06:54.304Z,1.70
2018-07-04T05:09:28.896Z,1.50
2018-07-04T05:12:03.284Z,1.30
2018-07-04T05:14:37.428Z,1.23
2018-07-04T05:17:12.040Z,1.20
2018-07-04T05:19:46.157Z,2.30
2018-07-04T05:22:20.628Z,1.80
2018-07-04T05:24:54.536Z,1.60
2018-07-04T05:27:28.815Z,1.50
2018-07-04T05:30:04.024Z,1.87
2018-07-04T05:32:38.584Z,1.43
2018-07-04T05:35:12.918Z,1.90
2018-07-04T05:37:46.755Z,1.37
2018-07-04T05:40:21.056Z,1.30
2018-07-04T05:42:55.370Z,1.60
2018-07-04T05:45:29.221Z,1.50
2018-07-04T05:48:03.781Z,1.30
2018-07-04T05:50:38.305Z,1.73
2018-07-04T05:53:12.997Z,1.80
2018-07-04T05:55:47.653Z,1.90
2018-07-04T05:58:22.000Z,1.60
2018-07-04T06:00:56.224Z,2.00
2018-07-04T06:03:30.752Z,1.80
2018-07-04T06:06:05.931Z,1.47
2018-07-04T06:08:40.644Z,1.47
2018-07-04T06:11:15.307Z,1.80
2018-07-04T06:13:49.420Z,1.20
2018-07-04T06:16:23.940Z,1.20
2018-07-04T06:18:58.505Z,1.67
2018-07-04T06:21:33.095Z,1.40
2018-07-04T06:24:07.548Z,1.20
2018-07-04T06:26:41.965Z,1.10
2018-07-04T06:29:16.303Z,1.00
2018-07-04T06:31:50.792Z,1.23
2018-07-04T06:34:25.181Z,1.20
2018-07-04T06:36:59.296Z,2.00
2018-07-04T06:39:27.440Z,1.47
2018-07-04T06:41:56.515Z,1.37
2018-07-04T06:44:25.850Z,1.20
2018-07-04T06:46:53.998Z,1.30
2018-07-04T06:49:21.951Z,1.47
2018-07-04T06:51:50.052Z,1.67
2018-07-04T06:54:18.258Z,1.30
2018-07-04T06:56:46.668Z,1.33
2018-07-04T06:59:14.791Z,1.37
2018-07-04T07:01:42.540Z,1.43
2018-07-04T07:04:16.764Z,1.70
2018-07-04T07:06:51.218Z,1.20
2018-07-04T07:09:25.757Z,1.27
2018-07-04T07:11:59.792Z,1.30
2018-07-04T07:14:35.181Z,1.00
2018-07-04T07:17:09.564Z,1.20
2018-07-04T07:19:44.173Z,1.20
2018-07-04T07:22:18.707Z,2.10
2018-07-04T07:24:52.719Z,1.40
2018-07-04T07:27:27.286Z,1.23
2018-07-04T07:30:01.489Z,1.63
2018-07-04T07:32:36.005Z,1.40
2018-07-04T07:35:11.337Z,1.50
2018-07-04T07:37:45.551Z,1.30
2018-07-04T07:40:20.972Z,0.90
2018-07-04T07:42:55.396Z,1.30
2018-07-04T07:45:29.757Z,1.40
2018-07-04T07:48:04.288Z,1.13
2018-07-04T07:50:38.393Z,1.30
2018-07-04T07:53:12.722Z,1.10
2018-07-04T07:55:47.156Z,1.00
2018-07-04T07:58:21.696Z,1.07
2018-07-04T08:00:56.291Z,1.30
2018-07-04T08:03:30.867Z,1.20
2018-07-04T08:06:05.376Z,1.20
2018-07-04T08:08:39.864Z,1.00
2018-07-04T08:11:14.954Z,1.10
2018-07-04T08:13:49.296Z,0.97
2018-07-04T08:16:23.943Z,1.00
2018-07-04T08:18:58.379Z,1.20
2018-07-04T08:21:32.843Z,0.93
2018-07-04T08:24:06.836Z,1.10
2018-07-04T08:26:41.509Z,1.23
2018-07-04T08:29:16.100Z,1.03
2018-07-04T08:31:50.188Z,1.20
2018-07-04T08:34:24.772Z,1.40
2018-07-04T08:36:59.748Z,1.10
2018-07-04T08:39:38.340Z,1.10
2018-07-04T08:42:12.584Z,0.90
2018-07-04T08:44:46.688Z,1.20
2018-07-04T08:47:20.868Z,1.50
2018-07-04T08:49:55.800Z,1.20
2018-07-04T08:52:30.228Z,1.13
2018-07-04T08:55:04.643Z,1.00
2018-07-04T08:57:38.912Z,1.40
2018-07-04T09:00:13.503Z,0.90
2018-07-04T09:02:47.937Z,1.13
2018-07-04T09:05:22.600Z,1.10
2018-07-04T09:07:56.972Z,1.20
2018-07-04T09:10:31.015Z,1.30
2018-07-04T09:13:05.200Z,1.40
2018-07-04T09:15:39.928Z,1.20
2018-07-04T09:18:14.412Z,1.37
2018-07-04T09:20:49.053Z,1.17
2018-07-04T09:23:23.499Z,1.10
2018-07-04T09:25:58.097Z,1.03
2018-07-04T09:28:32.016Z,1.20
2018-07-04T09:31:06.440Z,0.90
2018-07-04T09:33:40.700Z,1.00
2018-07-04T09:36:15.036Z,1.20
2018-07-04T09:38:49.455Z,1.30
2018-07-04T09:41:23.492Z,1.45
2018-07-04T09:43:57.746Z,1.20
2018-07-04T09:46:36.231Z,1.20
2018-07-04T09:49:10.853Z,1.10
2018-07-04T09:51:45.507Z,1.20
2018-07-04T09:54:19.799Z,1.20
2018-07-04T09:56:54.236Z,1.33
2018-07-04T09:59:29.115Z,1.20
2018-07-04T10:02:03.488Z,1.30
2018-07-04T10:04:37.612Z,1.27
2018-07-04T10:07:12.283Z,1.12
2018-07-04T10:09:46.141Z,1.60
2018-07-04T10:12:20.472Z,1.10
2018-07-04T10:14:54.790Z,1.10
2018-07-04T10:17:29.020Z,1.20
2018-07-04T10:20:03.576Z,1.15
2018-07-04T10:22:37.819Z,1.25
2018-07-04T10:25:12.165Z,1.17
2018-07-04T10:27:46.576Z,1.30
2018-07-04T10:30:21.139Z,1.15
2018-07-04T10:32:55.855Z,2.50
2018-07-04T10:35:30.100Z,2.40
2018-07-04T10:38:04.373Z,1.45
2018-07-04T10:40:38.672Z,2.25
2018-07-04T10:43:13.318Z,1.80
2018-07-04T10:45:47.920Z,1.70
2018-07-04T10:48:22.067Z,1.72
2018-07-04T10:50:56.509Z,1.40
2018-07-04T10:53:31.179Z,1.25
2018-07-04T10:56:05.862Z,1.40
2018-07-04T10:58:40.436Z,1.90
2018-07-04T11:01:14.867Z,1.57
2018-07-04T11:03:49.938Z,1.60
2018-07-04T11:06:24.152Z,1.50
2018-07-04T11:08:58.476Z,1.65
2018-07-04T11:11:32.880Z,1.10
2018-07-04T11:14:07.690Z,1.60
2018-07-04T11:16:42.052Z,1.40
2018-07-04T11:19:15.843Z,1.57
2018-07-04T11:21:50.428Z,1.07
2018-07-04T11:24:24.692Z,1.37
2018-07-04T11:26:59.100Z,2.15
2018-07-04T11:29:33.766Z,1.40
2018-07-04T11:32:08.175Z,1.30
2018-07-04T11:34:42.453Z,1.62
2018-07-04T11:37:17.289Z,1.50
2018-07-04T11:39:51.983Z,1.30
2018-07-04T11:42:26.400Z,1.20
2018-07-04T11:45:00.937Z,1.52
2018-07-04T11:47:29.112Z,1.30
2018-07-04T11:49:58.547Z,1.00
2018-07-04T11:52:26.618Z,1.77
2018-07-04T11:54:54.922Z,1.30
2018-07-04T11:57:22.856Z,1.40
2018-07-04T11:59:51.199Z,1.20
2018-07-04T12:02:19.512Z,1.20
2018-07-04T12:04:54.553Z,1.30
2018-07-04T12:07:22.564Z,1.20
2018-07-04T12:09:50.899Z,1.20
2018-07-04T12:12:19.007Z,1.27
2018-07-04T12:14:47.436Z,1.17
2018-07-04T12:17:15.648Z,1.57
2018-07-04T12:19:43.827Z,1.62
2018-07-04T12:22:12.644Z,1.12
2018-07-04T12:24:40.618Z,1.02
2018-07-04T12:27:08.782Z,0.93
2018-07-04T12:29:37.024Z,2.40
2018-07-04T12:32:05.420Z,1.20
2018-07-04T12:34:33.539Z,1.05
2018-07-04T12:37:02.231Z,1.15
2018-07-04T12:39:30.360Z,1.20
2018-07-04T12:41:58.299Z,1.00
2018-07-04T12:44:26.483Z,1.27
2018-07-04T12:46:54.632Z,1.20
2018-07-04T12:49:25.927Z,1.30
2018-07-04T12:51:54.663Z,1.42
2018-07-04T12:54:27.960Z,1.02
2018-07-04T12:57:02.176Z,1.30
2018-07-04T12:59:36.624Z,1.35
2018-07-04T13:02:12.181Z,1.30
2018-07-04T13:04:47.203Z,1.22
2018-07-04T13:07:22.138Z,1.00
2018-07-04T13:09:56.547Z,1.20
2018-07-04T13:12:30.780Z,1.10
2018-07-04T13:15:05.235Z,1.62
2018-07-04T13:17:39.748Z,1.20
2018-07-04T13:20:13.722Z,1.32
2018-07-04T13:22:48.116Z,1.20
2018-07-04T13:25:22.283Z,1.55
2018-07-04T13:27:56.267Z,1.17
2018-07-04T13:30:30.676Z,1.35
2018-07-04T13:33:05.001Z,1.00
2018-07-04T13:35:39.195Z,1.10
2018-07-04T13:38:14.032Z,1.20
2018-07-04T13:40:48.293Z,1.30
2018-07-04T13:43:22.691Z,1.12
2018-07-04T13:45:57.123Z,1.20
2018-07-04T13:48:31.416Z,1.40
2018-07-04T13:51:05.784Z,1.20
2018-07-04T13:53:40.152Z,1.40
2018-07-04T13:56:14.498Z,1.17
2018-07-04T13:58:48.692Z,1.27
2018-07-04T14:01:23.168Z,1.27
2018-07-04T14:03:57.889Z,1.25
2018-07-04T14:06:32.420Z,1.30
2018-07-04T14:09:06.811Z,1.20
2018-07-04T14:11:41.224Z,1.25
2018-07-04T14:14:15.664Z,1.30
2018-07-04T14:16:50.000Z,1.02
2018-07-04T14:19:24.304Z,1.15
2018-07-04T14:21:58.720Z,1.17
2018-07-04T14:24:32.846Z,1.42
2018-07-04T14:27:07.492Z,1.20
2018-07-04T14:29:41.865Z,1.20
2018-07-04T14:32:16.432Z,1.45
2018-07-04T14:34:50.516Z,1.20
2018-07-04T14:37:25.151Z,1.40
2018-07-04T14:39:59.508Z,1.40
2018-07-04T14:42:34.176Z,1.80
2018-07-04T14:45:08.847Z,1.20
2018-07-04T14:47:43.195Z,1.12
2018-07-04T14:50:17.337Z,1.40
2018-07-04T14:52:51.754Z,1.27
2018-07-04T14:55:26.664Z,1.27
2018-07-04T14:58:01.400Z,1.25
2018-07-04T15:00:39.830Z,1.47
2018-07-04T15:03:13.908Z,1.42
2018-07-04T15:05:48.135Z,1.20
2018-07-04T15:08:22.764Z,1.22
2018-07-04T15:10:56.896Z,1.30
2018-07-04T15:13:31.500Z,1.30
2018-07-04T15:16:05.882Z,1.07
2018-07-04T15:18:40.252Z,1.12
2018-07-04T15:21:14.991Z,1.37
2018-07-04T15:23:49.404Z,1.20
2018-07-04T15:26:23.676Z,1.42
2018-07-04T15:28:58.340Z,1.60
2018-07-04T15:31:32.540Z,1.47
2018-07-04T15:34:06.772Z,1.57
2018-07-04T15:36:41.521Z,1.20
2018-07-04T15:39:15.712Z,1.20
2018-07-04T15:41:50.099Z,1.40
2018-07-04T15:44:24.591Z,1.52
2018-07-04T15:46:58.880Z,1.17
2018-07-04T15:49:33.400Z,1.12
2018-07-04T15:52:07.920Z,1.20
2018-07-04T15:54:42.295Z,1.07
2018-07-04T15:57:16.492Z,1.47
2018-07-04T15:59:50.755Z,1.42
2018-07-04T16:02:25.448Z,1.12
2018-07-04T16:04:59.748Z,1.30
2018-07-04T16:07:33.836Z,1.20
2018-07-04T16:10:07.996Z,1.30
2018-07-04T16:12:42.564Z,1.70
2018-07-04T16:15:17.460Z,1.12
2018-07-04T16:17:51.976Z,1.12
2018-07-04T16:20:26.452Z,1.15
2018-07-04T16:23:00.340Z,1.20
2018-07-04T16:25:35.400Z,1.00
2018-07-04T16:28:09.885Z,1.00
2018-07-04T16:30:44.516Z,1.40
2018-07-04T16:33:19.167Z,1.17
2018-07-04T16:35:53.512Z,1.12
2018-07-04T16:38:27.786Z,1.17
2018-07-04T16:41:01.897Z,1.35
2018-07-04T16:43:36.548Z,1.20
2018-07-04T16:46:10.792Z,1.20
2018-07-04T16:48:45.188Z,1.10
2018-07-04T16:51:19.340Z,1.20
2018-07-04T16:53:53.620Z,1.25
2018-07-04T16:56:27.841Z,1.20
2018-07-04T16:59:02.921Z,1.00
2018-07-04T17:01:37.287Z,1.00
2018-07-04T17:04:11.387Z,1.20
2018-07-04T17:06:45.645Z,1.00
2018-07-04T17:09:20.160Z,1.10
2018-07-04T17:11:54.502Z,1.10
2018-07-04T17:14:28.809Z,1.10
2018-07-04T17:17:03.146Z,0.93
2018-07-04T17:19:37.853Z,1.10
2018-07-04T17:22:12.283Z,1.05
2018-07-04T17:24:46.776Z,0.90
2018-07-04T17:27:22.116Z,1.20
2018-07-04T17:29:56.394Z,1.05
2018-07-04T17:32:30.986Z,1.20
2018-07-04T17:35:05.670Z,1.50
2018-07-04T17:37:40.004Z,1.22
2018-07-04T17:40:14.920Z,1.00
2018-07-04T17:42:49.084Z,0.98
2018-07-04T17:45:23.676Z,1.20
2018-07-04T17:47:58.403Z,1.10
2018-07-04T17:50:32.622Z,0.90
2018-07-04T17:53:07.145Z,1.00
2018-07-04T17:55:41.695Z,1.30
2018-07-04T17:58:15.919Z,1.10
2018-07-04T18:00:50.216Z,1.20
2018-07-04T18:03:25.856Z,1.45
2018-07-04T18:06:00.137Z,1.10
2018-07-04T18:08:34.696Z,1.15
2018-07-04T18:11:09.554Z,0.98
2018-07-04T18:13:47.760Z,1.00
2018-07-04T18:16:22.382Z,1.20
2018-07-04T18:18:57.051Z,1.17
2018-07-04T18:21:31.312Z,1.20
2018-07-04T18:24:07.262Z,1.02
2018-07-04T18:26:41.815Z,1.20
2018-07-04T18:29:16.214Z,1.10
2018-07-04T18:31:50.351Z,1.17
2018-07-04T18:34:25.147Z,1.10
2018-07-04T18:36:59.640Z,1.02
2018-07-04T18:39:33.848Z,0.95
2018-07-04T18:42:08.269Z,1.10
2018-07-04T18:44:42.909Z,1.20
2018-07-04T18:47:17.216Z,0.98
2018-07-04T18:49:51.886Z,1.20
2018-07-04T18:52:26.400Z,1.20
2018-07-04T18:55:00.928Z,1.65
2018-07-04T18:57:35.548Z,1.40
2018-07-04T19:00:10.040Z,1.10
2018-07-04T19:02:44.248Z,1.12
2018-07-04T19:05:19.596Z,1.05
2018-07-04T19:07:53.900Z,1.00
2018-07-04T19:10:28.380Z,1.20
2018-07-04T19:13:02.702Z,0.90
2018-07-04T19:15:37.048Z,1.10
2018-07-04T19:18:12.171Z,1.10
2018-07-04T19:20:46.573Z,1.10
2018-07-04T19:23:21.508Z,1.40
2018-07-04T19:25:55.836Z,1.00
2018-07-04T19:28:30.124Z,1.00
2018-07-04T19:31:05.283Z,0.93
2018-07-04T19:33:39.804Z,1.17
2018-07-04T19:36:14.223Z,1.13
2018-07-04T19:38:48.963Z,1.23
2018-07-04T19:41:23.647Z,1.23
2018-07-04T19:43:57.995Z,1.20
2018-07-04T19:46:32.152Z,1.40
2018-07-04T19:49:06.707Z,1.10
2018-07-04T19:51:40.597Z,1.30
2018-07-04T19:54:15.340Z,1.73
2018-07-04T19:56:49.632Z,1.10
2018-07-04T19:59:24.037Z,1.10
2018-07-04T20:01:58.708Z,1.80
2018-07-04T20:04:34.005Z,1.10
2018-07-04T20:07:09.367Z,1.10
2018-07-04T20:09:43.718Z,1.20
2018-07-04T20:12:18.290Z,1.33
2018-07-04T20:14:53.568Z,1.13
2018-07-04T20:17:27.933Z,1.20
2018-07-04T20:20:02.252Z,1.30
2018-07-04T20:22:36.604Z,1.00
2018-07-04T20:25:12.312Z,1.10
2018-07-04T20:27:46.540Z,1.10
2018-07-04T20:30:20.831Z,1.00
2018-07-04T20:32:56.328Z,1.10
2018-07-04T20:35:30.516Z,1.10
2018-07-04T20:38:04.964Z,1.40
2018-07-04T20:40:39.463Z,1.00
2018-07-04T20:43:15.267Z,1.30
2018-07-04T20:45:50.140Z,1.07
2018-07-04T20:48:24.295Z,1.10
2018-07-04T20:50:58.690Z,1.30
2018-07-04T20:53:33.039Z,1.30
2018-07-04T20:56:07.497Z,1.10
2018-07-04T20:58:42.429Z,1.10
2018-07-04T21:01:16.643Z,1.10
2018-07-04T21:03:51.216Z,1.40
2018-07-04T21:06:25.623Z,1.23
2018-07-04T21:09:00.293Z,1.20
2018-07-04T21:11:35.243Z,1.10
2018-07-04T21:14:09.900Z,1.30
2018-07-04T21:16:44.624Z,1.30
2018-07-04T21:19:19.251Z,1.13
2018-07-04T21:21:53.449Z,1.10
2018-07-04T21:24:27.992Z,1.10
2018-07-04T21:27:02.380Z,1.10
2018-07-04T21:29:36.631Z,0.93
2018-07-04T21:32:10.903Z,1.03
2018-07-04T21:34:44.887Z,1.10
2018-07-04T21:37:19.380Z,1.30
2018-07-04T21:39:53.904Z,1.17
2018-07-04T21:42:28.339Z,1.00
2018-07-04T21:45:02.781Z,1.10
2018-07-04T21:47:37.208Z,0.87
2018-07-04T21:50:11.825Z,1.50
2018-07-04T21:52:46.488Z,1.30
2018-07-04T21:55:20.848Z,1.10
2018-07-04T21:57:55.032Z,1.00
2018-07-04T22:00:29.326Z,1.20
2018-07-04T22:03:03.651Z,1.30
2018-07-04T22:05:37.745Z,1.23
2018-07-04T22:08:12.161Z,1.10
2018-07-04T22:10:46.590Z,0.90
2018-07-04T22:13:20.400Z,1.30
2018-07-04T22:15:54.848Z,1.30
2018-07-04T22:18:29.204Z,1.10
2018-07-04T22:21:03.699Z,1.20
2018-07-04T22:23:38.347Z,1.33
2018-07-04T22:26:12.835Z,1.30
2018-07-04T22:28:47.830Z,1.10
2018-07-04T22:31:22.370Z,1.13
2018-07-04T22:33:56.484Z,1.00
2018-07-04T22:36:31.156Z,1.13
2018-07-04T22:39:06.228Z,1.20
2018-07-04T22:41:40.729Z,1.03
2018-07-04T22:44:15.019Z,1.17
2018-07-04T22:46:49.064Z,1.30
2018-07-04T22:49:23.606Z,1.00
2018-07-04T22:51:59.439Z,1.10
2018-07-04T22:54:33.828Z,1.00
2018-07-04T22:57:08.232Z,1.20
2018-07-04T22:59:42.440Z,1.10
2018-07-04T23:02:16.785Z,1.20
2018-07-04T23:04:51.155Z,1.20
2018-07-04T23:07:25.668Z,1.23
2018-07-04T23:09:59.875Z,1.10
2018-07-04T23:12:34.376Z,1.00
2018-07-04T23:15:08.780Z,0.90
2018-07-04T23:17:43.212Z,1.03
2018-07-04T23:20:17.760Z,1.47
2018-07-04T23:22:52.360Z,1.07
2018-07-04T23:25:27.065Z,1.00
2018-07-04T23:28:01.261Z,1.10
2018-07-04T23:30:35.748Z,0.90
2018-07-04T23:33:09.803Z,1.10
2018-07-04T23:35:44.488Z,1.07
2018-07-04T23:38:19.346Z,0.87
2018-07-04T23:40:54.123Z,1.00
2018-07-04T23:43:29.313Z,1.10
2018-07-04T23:46:03.911Z,1.03
2018-07-04T23:48:38.281Z,1.20
2018-07-04T23:51:12.507Z,0.90
2018-07-04T23:53:47.117Z,1.30
2018-07-04T23:56:21.800Z,1.07
2018-07-04T23:58:56.327Z,1.03
